createdAt,value
2022-08-17T00:05:09.118Z,101172.78
2022-08-17T00:15:11.917Z,101179.41
2022-08-17T00:25:17.497Z,101172.91
2022-08-17T00:35:22.213Z,101174.50
2022-08-17T00:45:23.678Z,101185.88
2022-08-17T00:55:25.971Z,101183.34
2022-08-17T01:05:31.126Z,101177.09
2022-08-17T01:15:36.356Z,101187.97
2022-08-17T01:25:38.111Z,101187.88
2022-08-17T01:35:40.593Z,101199.44
2022-08-17T01:45:46.212Z,101206.09
2022-08-17T01:55:51.574Z,101206.16
2022-08-17T02:05:53.194Z,101200.88
2022-08-17T02:15:54.593Z,101218.31
2022-08-17T02:25:58.724Z,101203.47
2022-08-17T02:36:00.385Z,101201.00
2022-08-17T02:46:01.881Z,101191.63
2022-08-17T02:56:04.040Z,101190.31
2022-08-17T03:06:07.024Z,101191.34
2022-08-17T03:16:08.596Z,101190.25
2022-08-17T03:26:12.164Z,101184.44
2022-08-17T03:36:16.866Z,101193.00
2022-08-17T03:46:28.810Z,101197.69
2022-08-17T03:56:37.210Z,101201.38
2022-08-17T04:06:39.958Z,101205.31
2022-08-17T04:16:41.397Z,101196.72
2022-08-17T04:26:52.645Z,101201.38
2022-08-17T04:36:55.938Z,101206.63
2022-08-17T04:46:57.356Z,101221.00
2022-08-17T04:56:58.783Z,101216.25
2022-08-17T05:07:00.384Z,101211.63
2022-08-17T05:17:07.023Z,101218.97
2022-08-17T05:27:08.898Z,101222.53
2022-08-17T05:37:10.315Z,101232.50
2022-08-17T05:47:11.827Z,101234.50
2022-08-17T05:57:20.870Z,101241.38
2022-08-17T06:07:37.563Z,101242.91
2022-08-17T06:17:40.571Z,101242.78
2022-08-17T06:27:55.619Z,101242.84
2022-08-17T06:38:19.887Z,101243.22
2022-08-17T06:48:52.152Z,101249.03
2022-08-17T06:58:57.186Z,101239.25
2022-08-17T07:09:05.879Z,101243.63
2022-08-17T07:19:11.050Z,101247.28
2022-08-17T07:29:17.558Z,101261.59
2022-08-17T07:39:26.791Z,101242.16
2022-08-17T07:49:31.070Z,101249.31
2022-08-17T07:59:35.994Z,101255.81
2022-08-17T08:09:46.939Z,101253.91
2022-08-17T08:19:48.406Z,101264.25
2022-08-17T08:29:55.486Z,101263.94
2022-08-17T08:40:09.227Z,101278.38
2022-08-17T08:50:38.089Z,101270.75
2022-08-17T09:00:45.616Z,101281.72
2022-08-17T09:10:59.263Z,101283.19
2022-08-17T09:21:10.865Z,101276.59
2022-08-17T09:31:33.352Z,101269.66
2022-08-17T09:41:48.711Z,101273.09
2022-08-17T09:52:05.461Z,101270.31
2022-08-17T10:02:25.736Z,101265.84
2022-08-17T10:12:53.215Z,101254.13
2022-08-17T10:23:00.929Z,101260.75
2022-08-17T10:33:06.329Z,101254.53
2022-08-17T10:43:44.663Z,101242.03
2022-08-17T10:54:07.003Z,101251.09
2022-08-17T11:04:51.641Z,101232.91
2022-08-17T11:15:11.350Z,101233.91
2022-08-17T11:25:21.402Z,101233.09
2022-08-17T11:35:22.761Z,101234.53
2022-08-17T11:46:01.485Z,101228.34
2022-08-17T11:56:08.264Z,101227.13
2022-08-17T12:06:09.642Z,101223.22
2022-08-17T12:16:17.301Z,101224.19
2022-08-17T12:26:22.953Z,101213.13
2022-08-17T12:36:27.517Z,101218.06
2022-08-17T12:46:42.776Z,101217.22
2022-08-17T12:56:46.130Z,101209.25
2022-08-17T13:06:50.865Z,101208.66
2022-08-17T13:17:02.930Z,101189.00
2022-08-17T13:27:09.880Z,101186.91
2022-08-17T13:37:23.459Z,101177.06
2022-08-17T13:47:25.267Z,101177.19
2022-08-17T13:57:27.031Z,101187.41
2022-08-17T14:07:32.716Z,101185.38
2022-08-17T14:17:47.090Z,101179.81
2022-08-17T14:27:52.735Z,101176.84
2022-08-17T14:37:55.516Z,101175.88
2022-08-17T14:47:56.958Z,101160.94
2022-08-17T14:57:59.477Z,101155.75
2022-08-17T15:08:01.749Z,101136.91
2022-08-17T15:18:03.673Z,101132.53
2022-08-17T15:28:05.488Z,101120.75
2022-08-17T15:38:12.070Z,101110.03
2022-08-17T15:48:13.877Z,101108.34
2022-08-17T15:58:15.306Z,101110.00
2022-08-17T16:08:21.483Z,101102.19
2022-08-17T16:18:24.496Z,101093.97
2022-08-17T16:28:35.837Z,101085.72
2022-08-17T16:38:37.964Z,101067.91
2022-08-17T16:48:39.375Z,101063.13
2022-08-17T16:58:40.835Z,101061.78
2022-08-17T17:08:52.272Z,101062.28
2022-08-17T17:18:59.775Z,101076.69
2022-08-17T17:29:14.991Z,101078.06
2022-08-17T17:39:30.721Z,101076.41
2022-08-17T17:49:41.689Z,101073.56
2022-08-17T18:00:01.661Z,101079.47
2022-08-17T18:10:31.782Z,101056.22
2022-08-17T18:20:43.250Z,101107.13
2022-08-17T18:31:15.312Z,101310.28
2022-08-17T18:41:20.987Z,60218.47
2022-08-17T18:51:41.596Z,60218.47
2022-08-17T19:01:58.898Z,60218.47
2022-08-17T19:12:06.337Z,60218.47
2022-08-17T19:22:29.087Z,60218.47
2022-08-17T19:32:34.547Z,60218.47
2022-08-17T19:42:42.236Z,60218.47
2022-08-17T19:52:53.398Z,60218.47
2022-08-17T20:03:07.128Z,60218.47
2022-08-17T20:13:14.934Z,60218.47
2022-08-17T20:23:49.943Z,60218.47
2022-08-17T20:33:51.376Z,60218.47
2022-08-17T20:43:58.973Z,60218.47
2022-08-17T20:54:27.232Z,60218.47
2022-08-17T21:04:49.895Z,60218.47
2022-08-17T21:15:02.898Z,60218.47
2022-08-17T21:25:34.936Z,60218.47
2022-08-17T21:35:52.485Z,60218.47
2022-08-17T21:46:01.035Z,60218.47
2022-08-17T21:56:02.735Z,60218.47
2022-08-17T22:06:25.288Z,60218.47
2022-08-17T22:16:28.293Z,60218.47
2022-08-17T22:27:04.377Z,60218.47
2022-08-17T22:37:28.477Z,60218.47
2022-08-17T22:47:34.084Z,60218.47
2022-08-17T22:57:36.016Z,60218.47
2022-08-17T23:07:37.480Z,60218.47
2022-08-17T23:17:38.895Z,60218.47
2022-08-17T23:27:40.375Z,60218.47
2022-08-17T23:37:41.810Z,60218.47
2022-08-17T23:47:43.244Z,60218.47
2022-08-17T23:57:44.691Z,60218.47
